Washington, Colorado
Current Conditions -  °F | °C
As of 12:25 PM on Monday 22 Dec 2014 (Local Time) from KALS Reporting Station
Light Snow Light Snow  
Wind Chill: 26°   Ceiling: 1400
Heat Index: 34°   Visibility: 1.7mi
Dew Point: 29°   Wind: 10mph
Humidity: 82%   Direction: 20°NNE
Pressure: 29.67"   Gusts: NA
Location:  37.469°N, 105.836°W
Report Text: KALS 221925Z AUTO 02009KT 1 3/4SM -SN FEW007 BKN014 OVC075 01/M02 A2967 RMK AO2 SNB19 P0000 T00111017
Loading
Personal Weather Stations






























Interactive Weather Map New forecast layout! Learn more

10-Day Weather Forecast

Advertisements
Track Severe Weather on mobile